Time;durP1;ratioP1;P1;durP2;ratioP2;P2;SDS_P1;SDS_P2;PMS_P1;PMS_P2;Temp;Humidity;BMP_temperature;BMP_pressure;BME280_temperature;BME280_humidity;BME280_pressure;Samples;Min_cycle;Max_cycle;Signal;HPM_P1;HPM_P2
2022/08/10 00:01:39;;;;;;;7.93;5.18;;;;;;;;;;5051137;28;20498;-62
2022/08/10 00:04:05;;;;;;;7.72;4.68;;;;;;;;;;5051941;28;20044;-62
2022/08/10 00:06:32;;;;;;;8.70;5.13;;;;;;;;;;5051815;28;20044;-62
2022/08/10 00:08:58;;;;;;;8.15;5.85;;;;;;;;;;5033240;28;20090;-62
2022/08/10 00:11:24;;;;;;;10.95;6.68;;;;;;;;;;5033890;28;20132;-62
2022/08/10 00:13:51;;;;;;;9.35;5.75;;;;;;;;;;5034324;28;20370;-62
2022/08/10 00:16:17;;;;;;;7.10;4.65;;;;;;;;;;5017057;28;20048;-62
2022/08/10 00:18:43;;;;;;;7.75;4.85;;;;;;;;;;5051618;28;20481;-62
2022/08/10 00:21:09;;;;;;;11.52;6.10;;;;;;;;;;5034167;28;20442;-62
2022/08/10 00:23:36;;;;;;;9.80;6.15;;;;;;;;;;5033070;28;20057;-62
2022/08/10 00:26:03;;;;;;;9.73;6.47;;;;;;;;;;5033738;28;20041;-62
2022/08/10 00:28:29;;;;;;;9.93;6.20;;;;;;;;;;5051701;28;20486;-62
2022/08/10 00:30:55;;;;;;;9.05;6.10;;;;;;;;;;5032097;28;20375;-62
2022/08/10 00:33:22;;;;;;;8.98;5.93;;;;;;;;;;5064551;28;20094;-62
2022/08/10 00:35:48;;;;;;;10.10;6.35;;;;;;;;;;5071615;28;20102;-62
2022/08/10 00:38:14;;;;;;;7.20;5.10;;;;;;;;;;5052030;28;20051;-62
2022/08/10 00:40:40;;;;;;;7.63;4.80;;;;;;;;;;5036796;28;20037;-62
2022/08/10 00:43:06;;;;;;;8.93;5.45;;;;;;;;;;5038077;28;20037;-62
2022/08/10 00:45:32;;;;;;;9.02;4.93;;;;;;;;;;5054721;28;20041;-62
2022/08/10 00:47:58;;;;;;;7.18;4.43;;;;;;;;;;5037617;28;20041;-62
2022/08/10 00:50:25;;;;;;;7.05;4.43;;;;;;;;;;5055598;28;20103;-62
2022/08/10 00:52:51;;;;;;;7.72;4.60;;;;;;;;;;5036655;28;20049;-62
2022/08/10 00:55:17;;;;;;;9.55;5.35;;;;;;;;;;5037592;28;20041;-62
2022/08/10 00:57:43;;;;;;;7.78;4.63;;;;;;;;;;5037187;28;20048;-61
2022/08/10 01:00:10;;;;;;;7.63;4.88;;;;;;;;;;5054575;28;20120;-62
2022/08/10 01:02:36;;;;;;;6.78;4.18;;;;;;;;;;5054835;28;20041;-62
2022/08/10 01:05:04;;;;;;;8.77;5.10;;;;;;;;;;5036737;28;20051;-62
2022/08/10 01:07:42;;;;;;;7.63;4.93;;;14.90;99.90;;;;;;5055187;28;20076;-62
2022/08/10 01:10:13;;;;;;;9.55;4.97;;;14.80;99.90;;;;;;5021221;28;20041;-62
2022/08/10 01:13:03;;;;;;;8.93;5.40;;;14.70;99.90;;;;;;5036243;28;20041;-62
2022/08/10 01:15:47;;;;;;;8.30;5.25;;;14.80;99.90;;;;;;5055284;28;20040;-62
2022/08/10 01:18:13;;;;;;;8.48;5.45;;;14.80;99.90;;;;;;5055424;28;20043;-62
2022/08/10 01:21:00;;;;;;;8.07;5.55;;;14.80;99.90;;;;;;5036296;28;20436;-62
2022/08/10 01:24:07;;;;;;;7.93;5.63;;;14.60;99.90;;;;;;5053788;28;20060;-62
2022/08/10 01:26:56;;;;;;;10.43;5.65;;;14.80;99.90;;;;;;5052676;28;20508;-62
2022/08/10 01:29:53;;;;;;;10.07;5.60;;;14.80;99.90;;;;;;5036926;28;20047;-62
2022/08/10 01:32:36;;;;;;;9.57;6.60;;;14.80;99.90;;;;;;5054131;28;20490;-62
2022/08/10 01:35:17;;;;;;;11.35;6.22;;;14.90;99.90;;;;;;5035940;28;20093;-62
2022/08/10 01:37:49;;;;;;;8.40;5.53;;;14.90;99.90;;;;;;5035932;28;20049;-62
2022/08/10 01:40:17;;;;;;;9.20;5.85;;;14.80;99.90;;;;;;5035987;28;20513;-62
2022/08/10 01:42:45;;;;;;;9.50;6.60;;;14.90;99.90;;;;;;5054326;28;20044;-62
2022/08/10 01:45:13;;;;;;;9.00;6.38;;;14.90;99.90;;;;;;5054728;28;20378;-62
2022/08/10 01:50:34;;;;;;;9.45;6.90;;;15.30;99.90;;;;;;5053923;28;20045;-62
2022/08/10 01:53:06;;;;;;;8.57;5.10;;;14.80;99.90;;;;;;5054084;28;20102;-62
2022/08/10 01:55:33;;;;;;;11.75;6.43;;;15.00;99.90;;;;;;5053332;28;20650;-62
2022/08/10 01:58:02;;;;;;;9.32;6.28;;;14.80;99.90;;;;;;5036057;28;20045;-62
2022/08/10 02:00:31;;;;;;;9.43;6.45;;;14.80;99.90;;;;;;5036075;28;20056;-62
2022/08/10 02:02:59;;;;;;;9.38;6.10;;;14.80;99.90;;;;;;5052884;28;20049;-62
2022/08/10 02:05:28;;;;;;;9.57;5.85;;;14.80;99.90;;;;;;5035928;28;20160;-62
2022/08/10 02:07:56;;;;;;;9.68;5.75;;;14.70;99.90;;;;;;5051918;28;20044;-67
2022/08/10 02:10:25;;;;;;;10.57;6.15;;;14.80;99.90;;;;;;5054285;28;20047;-67
2022/08/10 02:12:55;;;;;;;8.95;5.60;;;15.10;99.90;;;;;;5049188;28;20104;-67
2022/08/10 02:15:24;;;;;;;11.90;5.22;;;14.60;99.90;;;;;;5035608;28;20045;-67
2022/08/10 02:18:00;;;;;;;6.70;4.25;;;15.00;99.90;;;;;;5054027;28;20663;-66
2022/08/10 02:20:30;;;;;;;8.20;5.65;;;14.60;99.90;;;;;;5035759;28;20037;-66
2022/08/10 02:23:01;;;;;;;8.93;5.32;;;15.00;99.90;;;;;;5034917;28;20059;-66
2022/08/10 02:25:27;;;;;;;10.77;5.35;;;14.70;99.90;;;;;;5035671;28;20482;-67
2022/08/10 02:27:54;;;;;;;10.20;5.93;;;;;;;;;;5019772;28;20095;-67
2022/08/10 02:30:21;;;;;;;7.90;5.32;;;14.40;99.90;;;;;;5035448;28;20053;-67
2022/08/10 02:32:48;;;;;;;9.52;5.47;;;14.50;99.90;;;;;;5032294;28;20049;-67
2022/08/10 02:35:16;;;;;;;14.30;6.40;;;14.40;99.90;;;;;;5016055;28;20049;-67
2022/08/10 02:37:45;;;;;;;10.30;5.65;;;14.50;99.90;;;;;;5015229;28;20943;-67
2022/08/10 02:40:11;;;;;;;9.80;6.03;;;14.40;99.90;;;;;;5033855;28;20045;-66
2022/08/10 02:43:20;;;;;;;9.57;6.13;;;14.50;99.90;;;;;;4999593;28;20116;-67
2022/08/10 02:45:51;;;;;;;12.65;7.53;;;14.40;99.90;;;;;;5032378;28;20106;-67
2022/08/10 02:48:24;;;;;;;10.30;6.93;;;14.20;99.90;;;;;;5016124;28;20037;-66
2022/08/10 02:51:00;;;;;;;10.57;6.45;;;14.40;99.90;;;;;;5032515;28;20042;-66
2022/08/10 02:53:28;;;;;;;8.90;5.88;;;;;;;;;;5033468;28;20098;-66
2022/08/10 02:55:57;;;;;;;13.32;6.35;;;;;;;;;;5015525;28;20454;-67
2022/08/10 02:58:29;;;;;;;11.18;6.75;;;;;;;;;;5033179;28;20390;-67
2022/08/10 03:00:56;;;;;;;9.52;6.68;;;;;;;;;;5034944;28;20473;-67
2022/08/10 03:03:24;;;;;;;11.68;6.88;;;;;;;;;;5052498;28;20120;-66
2022/08/10 03:05:56;;;;;;;8.98;6.05;;;;;;;;;;5033841;28;20124;-67
2022/08/10 03:08:24;;;;;;;12.30;7.00;;;;;;;;;;5035277;28;20091;-66
2022/08/10 03:10:52;;;;;;;9.77;6.80;;;;;;;;;;5052803;28;20044;-67
2022/08/10 03:13:18;;;;;;;9.55;5.88;;;;;;;;;;5034714;28;20567;-66
2022/08/10 03:15:45;;;;;;;9.57;5.93;;;;;;;;;;5052486;28;20393;-67
2022/08/10 03:18:12;;;;;;;9.88;6.60;;;;;;;;;;5035256;28;20528;-67
2022/08/10 03:20:39;;;;;;;8.82;5.75;;;;;;;;;;5033710;28;20449;-67
2022/08/10 03:23:09;;;;;;;8.48;5.90;;;;;;;;;;5034722;28;20593;-67
2022/08/10 03:25:36;;;;;;;8.05;5.72;;;;;;;;;;5034129;28;20060;-66
2022/08/10 03:28:02;;;;;;;9.68;5.75;;;;;;;;;;5034555;28;20417;-67
2022/08/10 03:30:30;;;;;;;10.10;6.57;;;;;;;;;;5034652;28;20057;-67
2022/08/10 03:32:57;;;;;;;10.27;6.90;;;;;;;;;;5034139;28;20048;-67
2022/08/10 03:35:23;;;;;;;11.68;7.45;;;;;;;;;;5052536;28;20040;-67
2022/08/10 03:37:50;;;;;;;10.75;7.20;;;;;;;;;;5052404;28;20048;-67
2022/08/10 03:40:16;;;;;;;10.57;7.32;;;;;;;;;;5051746;28;20049;-67
2022/08/10 03:42:42;;;;;;;9.93;6.38;;;;;;;;;;5052513;28;20489;-67
2022/08/10 03:45:09;;;;;;;12.52;7.32;;;;;;;;;;5052436;28;20037;-67
2022/08/10 03:47:37;;;;;;;12.10;7.50;;;;;;;;;;5033656;28;20048;-66
2022/08/10 03:50:04;;;;;;;13.60;7.10;;;;;;;;;;5034443;28;20055;-67
2022/08/10 03:52:30;;;;;;;10.45;6.22;;;;;;;;;;5052021;28;20037;-66
2022/08/10 03:54:58;;;;;;;12.48;7.32;;;;;;;;;;5033751;28;20045;-66
2022/08/10 03:57:25;;;;;;;9.85;6.68;;;14.40;99.90;;;;;;5052142;28;20033;-66
2022/08/10 03:59:51;;;;;;;9.93;6.93;;;14.40;99.90;;;;;;5051998;28;20037;-66
2022/08/10 04:02:17;;;;;;;14.43;7.20;;;14.40;99.90;;;;;;5051759;28;20041;-66
2022/08/10 04:04:43;;;;;;;9.32;5.60;;;14.10;99.90;;;;;;5034145;28;20219;-67
2022/08/10 04:07:10;;;;;;;8.80;5.53;;;14.10;99.90;;;;;;5052156;28;20555;-66
2022/08/10 04:09:38;;;;;;;9.88;6.00;;;14.10;99.90;;;;;;5033427;28;20386;-66
2022/08/10 04:12:04;;;;;;;9.88;6.55;;;13.70;99.90;;;;;;5034083;28;20052;-66
2022/08/10 04:14:30;;;;;;;10.73;6.63;;;14.10;99.90;;;;;;5051843;28;20134;-66
2022/08/10 04:16:56;;;;;;;11.77;6.53;;;14.10;99.90;;;;;;5051248;28;20060;-66
2022/08/10 04:19:22;;;;;;;10.38;6.40;;;14.10;99.90;;;;;;5034336;28;20091;-66
2022/08/10 04:21:58;;;;;;;11.52;7.40;;;14.10;99.90;;;;;;5051316;28;20087;-66
2022/08/10 04:24:26;;;;;;;11.40;7.32;;;15.10;99.90;;;;;;5051048;28;20490;-67
2022/08/10 04:26:52;;;;;;;9.98;6.00;;;14.40;99.90;;;;;;5034191;28;20053;-66
2022/08/10 04:29:18;;;;;;;10.50;7.05;;;14.70;99.90;;;;;;5051449;28;20087;-66
2022/08/10 04:31:45;;;;;;;11.02;7.38;;;14.10;99.90;;;;;;5051164;28;20045;-66
2022/08/10 04:34:14;;;;;;;11.70;7.35;;;14.20;99.90;;;;;;5030652;28;20048;-66
2022/08/10 04:36:41;;;;;;;12.75;7.57;;;14.50;99.90;;;;;;5030962;28;20037;-67
2022/08/10 04:39:07;;;;;;;11.82;7.50;;;14.10;99.90;;;;;;5040929;28;20041;-66
2022/08/10 04:41:34;;;;;;;9.82;6.53;;;14.20;99.90;;;;;;5033751;28;20047;-66
2022/08/10 04:44:00;;;;;;;13.40;7.35;;;14.40;99.90;;;;;;5051145;28;20103;-67
2022/08/10 04:46:25;;;;;;;12.68;8.38;;;14.60;99.90;;;;;;5033802;28;20037;-66
2022/08/10 04:48:51;;;;;;;12.45;8.75;;;14.30;99.90;;;;;;5051627;28;20125;-66
2022/08/10 04:51:19;;;;;;;11.63;7.07;;;14.40;99.90;;;;;;5033240;28;20072;-66
2022/08/10 04:53:50;;;;;;;15.57;9.40;;;14.40;99.90;;;;;;5051134;28;20073;-66
2022/08/10 04:56:16;;;;;;;14.52;10.10;;;14.50;99.90;;;;;;5034314;28;20056;-67
2022/08/10 04:58:42;;;;;;;14.60;9.63;;;14.40;99.90;;;;;;5016936;28;20048;-66
2022/08/10 05:01:07;;;;;;;14.45;9.65;;;14.60;99.90;;;;;;5051313;28;20073;-66
2022/08/10 05:03:33;;;;;;;17.13;9.07;;;15.00;99.90;;;;;;5051413;28;20083;-66
2022/08/10 05:05:58;;;;;;;21.33;11.80;;;15.00;99.90;;;;;;5029141;28;20168;-66
2022/08/10 05:08:25;;;;;;;18.50;11.77;;;14.80;99.90;;;;;;5041748;28;20115;-67
2022/08/10 05:10:51;;;;;;;20.05;10.98;;;14.90;99.90;;;;;;5051231;28;20071;-66
2022/08/10 05:13:17;;;;;;;14.88;10.00;;;15.00;99.90;;;;;;5051035;28;20045;-66
2022/08/10 05:15:44;;;;;;;18.20;10.48;;;15.10;99.90;;;;;;5051098;28;20040;-66
2022/08/10 05:18:11;;;;;;;15.75;11.80;;;15.10;99.90;;;;;;5050637;28;20051;-66
2022/08/10 05:20:37;;;;;;;17.65;11.75;;;15.20;99.90;;;;;;5033594;28;20071;-66
2022/08/10 05:23:03;;;;;;;18.63;10.98;;;15.30;99.90;;;;;;5050882;28;20466;-66
2022/08/10 05:25:29;;;;;;;18.65;11.35;;;15.60;99.90;;;;;;5017678;28;20048;-67
2022/08/10 05:27:55;;;;;;;17.58;10.90;;;15.40;99.90;;;;;;5054785;28;20508;-66
2022/08/10 05:30:21;;;;;;;15.35;10.95;;;15.40;99.90;;;;;;5020602;28;20045;-66
2022/08/10 05:32:48;;;;;;;15.55;10.38;;;15.60;99.90;;;;;;5054006;28;20025;-66
2022/08/10 05:35:14;;;;;;;16.48;11.00;;;15.80;99.90;;;;;;5037014;28;20064;-67
2022/08/10 05:37:41;;;;;;;13.63;10.10;;;;;;;;;;5036934;28;20044;-66
2022/08/10 05:40:07;;;;;;;16.25;10.82;;;;;;;;;;5035030;28;20051;-67
2022/08/10 05:42:33;;;;;;;16.73;10.40;;;;;;;;;;5036959;28;20500;-66
2022/08/10 05:44:59;;;;;;;14.70;9.88;;;16.10;99.90;;;;;;5036701;28;20120;-67
2022/08/10 05:47:26;;;;;;;16.98;10.45;;;;;;;;;;5053799;28;20072;-66
2022/08/10 05:49:52;;;;;;;17.15;11.00;;;;;;;;;;5054464;28;20045;-66
2022/08/10 05:52:18;;;;;;;17.38;11.30;;;;;;;;;;5036874;28;20049;-66
2022/08/10 05:54:46;;;;;;;16.38;9.98;;;16.80;99.90;;;;;;5034623;28;20041;-66
2022/08/10 05:57:13;;;;;;;12.60;8.82;;;16.70;99.90;;;;;;5071288;28;20093;-66
2022/08/10 05:59:43;;;;;;;19.60;9.88;;;;;;;;;;5056403;28;20047;-66
2022/08/10 06:02:12;;;;;;;14.93;8.95;;;;;;;;;;5036997;28;20043;-66
2022/08/10 06:04:39;;;;;;;12.50;9.02;;;;;;;;;;5035231;28;20041;-66
2022/08/10 06:07:07;;;;;;;12.20;8.05;;;17.40;99.90;;;;;;5034856;28;20486;-66
2022/08/10 06:09:35;;;;;;;14.48;9.10;;;17.30;99.90;;;;;;5052921;28;20048;-66
2022/08/10 06:12:02;;;;;;;17.02;9.75;;;17.30;99.90;;;;;;5050021;28;20130;-66
2022/08/10 06:17:15;;;;;;;13.35;7.95;;;;;;;;;;5031333;28;20048;-66
2022/08/10 06:19:42;;;;;;;12.82;7.57;;;;;;;;;;5045069;28;20583;-67
2022/08/10 06:22:09;;;;;;;10.98;6.90;;;;;;;;;;5050818;28;20064;-66
2022/08/10 06:24:39;;;;;;;12.52;7.32;;;18.00;99.90;;;;;;5033670;28;20053;-66
2022/08/10 06:27:05;;;;;;;12.18;7.13;;;;;;;;;;5033171;28;20661;-67
2022/08/10 06:29:33;;;;;;;10.73;6.85;;;;;;;;;;5032736;28;20466;-66
2022/08/10 06:32:00;;;;;;;12.00;6.80;;;;;;;;;;5051406;28;20407;-66
2022/08/10 06:34:33;;;;;;;10.65;5.72;;;;;;;;;;5033579;28;20060;-67
2022/08/10 06:37:02;;;;;;;9.80;5.60;;;;;;;;;;5049851;28;20040;-67
2022/08/10 06:39:28;;;;;;;9.70;5.30;;;;;;;;;;5051639;28;20439;-67
2022/08/10 06:41:58;;;;;;;9.65;5.57;;;;;;;;;;5034320;28;20044;-67
2022/08/10 06:44:28;;;;;;;8.77;6.05;;;;;;;;;;5052532;28;20040;-67
2022/08/10 06:46:55;;;;;;;7.70;5.45;;;;;;;;;;5040117;28;20055;-67
2022/08/10 06:49:22;;;;;;;8.00;4.72;;;19.20;99.90;;;;;;5033381;28;20044;-67
2022/08/10 06:51:53;;;;;;;7.05;4.60;;;19.00;99.90;;;;;;5032527;28;20052;-67
2022/08/10 06:54:22;;;;;;;7.78;4.43;;;;;;;;;;5051770;28;20055;-67
2022/08/10 06:56:51;;;;;;;7.55;4.43;;;;;;;;;;5069373;28;20054;-67
2022/08/10 06:59:26;;;;;;;10.00;4.80;;;19.30;99.90;;;;;;5024019;28;20381;-66
2022/08/10 07:02:09;;;;;;;10.07;4.90;;;19.30;99.90;;;;;;5029072;28;20080;-67
2022/08/10 07:04:42;;;;;;;8.60;4.70;;;19.40;99.90;;;;;;5063149;28;20366;-67
2022/08/10 07:07:12;;;;;;;7.45;4.78;;;19.50;99.90;;;;;;5031318;28;20090;-66
2022/08/10 07:09:39;;;;;;;7.28;4.32;;;19.40;99.90;;;;;;5050973;28;20105;-67
2022/08/10 07:12:07;;;;;;;6.30;4.13;;;19.60;99.90;;;;;;5014154;28;20613;-67
2022/08/10 07:14:37;;;;;;;7.65;4.18;;;19.30;99.90;;;;;;5023206;28;20041;-66
2022/08/10 07:17:03;;;;;;;6.07;3.53;;;19.30;99.90;;;;;;5031429;28;20508;-67
2022/08/10 07:19:31;;;;;;;6.53;3.35;;;19.60;99.90;;;;;;5028765;28;20513;-67
2022/08/10 07:21:58;;;;;;;7.53;3.92;;;19.80;99.90;;;;;;5027760;28;20106;-66
2022/08/10 07:24:26;;;;;;;10.32;4.00;;;19.80;99.90;;;;;;5014411;28;20487;-67
2022/08/10 07:26:54;;;;;;;8.88;3.67;;;19.80;99.90;;;;;;5022067;28;20560;-67
2022/08/10 07:29:20;;;;;;;8.75;4.18;;;;;;;;;;5016684;28;20112;-67
2022/08/10 07:31:48;;;;;;;7.50;4.20;;;;;;;;;;5012055;28;20068;-67
2022/08/10 07:34:15;;;;;;;6.70;3.88;;;;;;;;;;5013158;28;20049;-67
2022/08/10 07:36:43;;;;;;;7.78;3.80;;;20.40;99.90;;;;;;5012526;28;20124;-67
2022/08/10 07:39:11;;;;;;;5.78;3.30;;;20.30;99.90;;;;;;5012310;28;20145;-67
2022/08/10 07:41:40;;;;;;;6.63;3.70;;;20.40;99.90;;;;;;5015363;28;20056;-67
2022/08/10 07:44:06;;;;;;;7.90;3.30;;;;;;;;;;5029809;28;20410;-67
2022/08/10 07:46:34;;;;;;;7.47;3.35;;;;;;;;;;5028000;28;20049;-67
2022/08/10 07:49:10;;;;;;;8.35;3.10;;;;;;;;;;5029141;28;20046;-67
2022/08/10 07:51:37;;;;;;;6.97;3.47;;;;;;;;;;5036705;28;20045;-68
2022/08/10 07:54:14;;;;;;;5.47;3.20;;;;;;;;;;5029225;28;20745;-70
2022/08/10 07:56:41;;;;;;;9.80;3.45;;;;;;;;;;5008010;28;20048;-69
2022/08/10 07:59:15;;;;;;;6.55;2.78;;;20.80;99.90;;;;;;5011722;28;20040;-69
2022/08/10 08:01:47;;;;;;;5.90;2.97;;;20.80;99.90;;;;;;4999443;28;20953;-69
2022/08/10 08:04:15;;;;;;;6.90;3.63;;;20.60;99.90;;;;;;5016035;28;20331;-69
2022/08/10 08:06:43;;;;;;;6.35;3.42;;;21.00;99.90;;;;;;5030476;28;20033;-68
2022/08/10 08:09:10;;;;;;;6.53;3.10;;;21.10;99.90;;;;;;5029230;28;20060;-68
2022/08/10 08:11:37;;;;;;;6.50;3.60;;;21.10;99.90;;;;;;5028013;28;20045;-67
2022/08/10 08:14:06;;;;;;;6.13;2.80;;;21.10;99.90;;;;;;5008584;28;20045;-68
2022/08/10 08:16:35;;;;;;;5.45;2.70;;;21.20;99.90;;;;;;5026919;28;20042;-67
2022/08/10 08:19:05;;;;;;;5.72;3.03;;;21.20;99.90;;;;;;4996249;28;20052;-65
2022/08/10 08:21:34;;;;;;;5.43;2.72;;;21.30;99.90;;;;;;5013653;28;20041;-66
2022/08/10 08:24:04;;;;;;;6.30;3.28;;;;;;;;;;4992756;28;20049;-68
2022/08/10 08:26:31;;;;;;;8.00;3.75;;;;;;;;;;5012697;28;20044;-67
2022/08/10 08:28:57;;;;;;;9.15;4.10;;;;;;;;;;5020347;28;20044;-68
2022/08/10 08:31:24;;;;;;;6.68;3.00;;;;;;;;;;5018539;28;20050;-69
2022/08/10 08:33:50;;;;;;;7.82;3.80;;;;;;;;;;5031775;28;20123;-68
2022/08/10 08:36:17;;;;;;;6.35;2.92;;;;;;;;;;5013223;28;20053;-66
2022/08/10 08:38:44;;;;;;;6.65;2.95;;;21.40;99.90;;;;;;5018873;28;20124;-68
2022/08/10 08:41:37;;;;;;;5.63;2.45;;;21.80;99.90;;;;;;5025558;28;20040;-69
2022/08/10 08:44:49;;;;;;;8.65;3.22;;;21.60;99.90;;;;;;5046474;28;20076;-69
2022/08/10 08:47:27;;;;;;;6.00;2.90;;;21.50;99.90;;;;;;5033621;28;20045;-69
2022/08/10 08:50:06;;;;;;;8.43;2.67;;;22.00;99.90;;;;;;5012887;28;20482;-69
2022/08/10 08:53:08;;;;;;;5.95;2.78;;;22.20;99.90;;;;;;5013839;28;20037;-68
2022/08/10 08:55:47;;;;;;;6.95;3.20;;;21.70;99.90;;;;;;5003818;28;20053;-68
2022/08/10 08:58:27;;;;;;;4.97;2.83;;;22.30;99.90;;;;;;5031105;28;20076;-67
2022/08/10 09:01:17;;;;;;;7.05;2.78;;;22.00;99.90;;;;;;5015838;28;20044;-68
2022/08/10 09:03:45;;;;;;;6.60;3.08;;;22.10;99.90;;;;;;5034364;28;20483;-69
2022/08/10 09:06:20;;;;;;;6.85;3.72;;;22.20;99.90;;;;;;5035403;28;20493;-67
2022/08/10 09:09:04;;;;;;;;;;;22.30;99.90;;;;;;5017709;28;20434;-67
2022/08/10 09:11:54;;;;;;;7.10;3.47;;;22.30;99.90;;;;;;5016816;28;19917;-63
2022/08/10 09:14:49;;;;;;;7.05;3.63;;;22.30;99.90;;;;;;5035058;28;20041;-62
2022/08/10 09:17:33;;;;;;;7.60;4.15;;;22.40;99.90;;;;;;5026338;28;20058;-63
2022/08/10 09:20:34;;;;;;;7.90;4.03;;;21.80;99.90;;;;;;5034966;28;20546;-63
2022/08/10 09:23:11;;;;;;;6.88;4.18;;;22.50;99.90;;;;;;5047051;28;20454;-63
2022/08/10 09:25:43;;;;;;;7.57;3.72;;;22.60;99.90;;;;;;5036666;28;20045;-62
2022/08/10 09:28:18;;;;;;;7.82;3.75;;;22.50;99.90;;;;;;5055172;28;20037;-63
2022/08/10 09:31:02;;;;;;;5.97;3.33;;;22.70;99.90;;;;;;5054498;28;20081;-62
2022/08/10 09:33:46;;;;;;;6.78;3.78;;;22.50;99.90;;;;;;5035870;28;20052;-63
2022/08/10 09:36:54;;;;;;;8.18;4.68;;;22.60;99.90;;;;;;5037046;28;20049;-63
2022/08/10 09:39:27;;;;;;;6.97;4.35;;;;;;;;;;5034258;28;20073;-63
2022/08/10 09:42:11;;;;;;;9.50;4.65;;;22.50;99.90;;;;;;5054090;28;20040;-62
2022/08/10 09:45:08;;;;;;;8.23;4.50;;;22.90;99.90;;;;;;5049154;28;20086;-62
2022/08/10 09:47:52;;;;;;;7.88;3.78;;;23.00;99.90;;;;;;5036330;28;20037;-62
2022/08/10 09:50:39;;;;;;;12.02;5.30;;;23.10;99.90;;;;;;5038395;28;20069;-63
2022/08/10 09:53:41;;;;;;;10.45;3.90;;;23.30;99.90;;;;;;5033167;28;20080;-62
2022/08/10 09:56:19;;;;;;;7.82;3.65;;;23.30;99.90;;;;;;5050489;28;20534;-62
2022/08/10 09:58:52;;;;;;;5.50;3.55;;;23.30;99.90;;;;;;5052385;28;20518;-63
2022/08/10 10:01:26;;;;;;;6.22;3.28;;;23.30;99.90;;;;;;5043759;28;20500;-63
2022/08/10 10:04:04;;;;;;;25.55;3.85;;;23.30;99.90;;;;;;5035907;28;20044;-62
2022/08/10 10:06:41;;;;;;;5.75;2.70;;;23.40;99.90;;;;;;5032371;28;20046;-63
2022/08/10 10:09:25;;;;;;;6.40;2.80;;;23.50;99.90;;;;;;5016817;28;20041;-62
2022/08/10 10:12:05;;;;;;;;;;;23.50;99.90;;;;;;5054275;28;20102;-63
2022/08/10 10:17:59;;;;;;;7.68;3.95;;;23.40;99.90;;;;;;5032806;28;20070;-62
2022/08/10 10:20:49;;;;;;;6.40;3.20;;;23.40;99.90;;;;;;5028238;28;20053;-63
2022/08/10 10:23:32;;;;;;;6.57;2.92;;;23.50;99.90;;;;;;5017568;28;20057;-63
2022/08/10 10:26:31;;;;;;;8.00;3.05;;;23.50;99.90;;;;;;5016382;28;20096;-65
2022/08/10 10:29:13;;;;;;;5.25;3.03;;;23.80;99.90;;;;;;5033458;28;20094;-65
2022/08/10 10:31:53;;;;;;;5.63;2.40;;;23.90;99.90;;;;;;5052299;28;20068;-64
2022/08/10 10:37:36;;;;;;;5.43;2.92;;;23.90;99.90;;;;;;5034488;28;20056;-64
2022/08/10 10:40:03;;;;;;;7.70;2.15;;;23.90;99.90;;;;;;5052604;28;20040;-64
2022/08/10 10:42:37;;;;;;;4.75;2.28;;;23.90;99.90;;;;;;5023253;28;20501;-63
2022/08/10 10:45:13;;;;;;;4.72;2.10;;;24.10;99.90;;;;;;5050969;28;20041;-64
2022/08/10 10:48:11;;;;;;;6.18;2.08;;;24.00;99.90;;;;;;5053568;28;20047;-64
2022/08/10 10:54:04;;;;;;;5.72;2.20;;;24.20;99.90;;;;;;5037212;28;20485;-64
2022/08/10 10:56:35;;;;;;;4.70;2.17;;;24.10;99.90;;;;;;5047453;28;20109;-64
2022/08/10 10:59:26;;;;;;;4.55;2.10;;;24.10;99.90;;;;;;5032211;28;20114;-64
2022/08/10 11:02:07;;;;;;;8.23;2.05;;;24.20;99.90;;;;;;5044856;28;20064;-65
2022/08/10 11:04:44;;;;;;;6.40;2.47;;;24.20;99.90;;;;;;5019928;28;20461;-65
2022/08/10 11:07:51;;;;;;;7.70;2.30;;;24.10;99.90;;;;;;5036196;28;20055;-65
2022/08/10 11:10:41;;;;;;;4.80;2.40;;;24.30;99.90;;;;;;5032438;28;20048;-65
2022/08/10 11:13:46;;;;;;;4.47;1.95;;;24.30;99.90;;;;;;5046825;28;20045;-65
2022/08/10 11:16:28;;;;;;;6.22;2.30;;;24.30;99.90;;;;;;5030937;28;20432;-65
2022/08/10 11:19:14;;;;;;;6.18;1.95;;;24.30;99.90;;;;;;5012059;28;20158;-65
2022/08/10 11:22:11;;;;;;;4.18;1.75;;;24.50;99.90;;;;;;5049858;28;20041;-65
2022/08/10 11:25:00;;;;;;;6.20;1.92;;;24.40;99.90;;;;;;5031130;28;20045;-65
2022/08/10 11:27:51;;;;;;;5.93;2.80;;;24.40;99.90;;;;;;4976353;28;20375;-65
2022/08/10 11:30:19;;;;;;;3.90;2.30;;;24.60;99.90;;;;;;5049957;28;20041;-65
2022/08/10 11:33:09;;;;;;;6.45;2.97;;;24.50;99.90;;;;;;5048948;28;20461;-65
2022/08/10 11:35:45;;;;;;;8.73;3.90;;;24.70;99.90;;;;;;5049816;28;20045;-65
2022/08/10 11:38:33;;;;;;;6.22;3.10;;;24.60;99.90;;;;;;5049407;28;20048;-65
2022/08/10 11:40:59;;;;;;;8.95;3.55;;;;;;;;;;5031594;28;20063;-65
2022/08/10 11:43:28;;;;;;;5.57;3.13;;;24.90;99.90;;;;;;5045829;28;20041;-66
2022/08/10 11:46:23;;;;;;;5.45;3.03;;;24.70;99.90;;;;;;5034956;28;20074;-65
2022/08/10 11:49:23;;;;;;;6.97;3.25;;;24.70;99.90;;;;;;5032125;28;20116;-65
2022/08/10 11:51:56;;;;;;;7.72;3.30;;;24.70;99.90;;;;;;5028738;28;20051;-66
2022/08/10 11:54:22;;;;;;;7.70;3.57;;;;;;;;;;5049190;28;20055;-65
2022/08/10 11:56:51;;;;;;;5.82;2.88;;;24.80;99.90;;;;;;5049837;28;20283;-65
2022/08/10 12:02:06;;;;;;;5.95;2.83;;;25.00;99.90;;;;;;5049171;28;20080;-65
2022/08/10 12:04:34;;;;;;;7.85;3.00;;;25.20;99.90;;;;;;5050224;28;20171;-64
2022/08/10 12:07:03;;;;;;;5.97;3.08;;;24.60;99.90;;;;;;5034862;28;20056;-64
2022/08/10 12:09:31;;;;;;;7.78;3.00;;;25.10;99.90;;;;;;5030369;28;20041;-64
2022/08/10 12:12:01;;;;;;;8.43;4.22;;;25.10;99.90;;;;;;5048853;28;20127;-64
2022/08/10 12:14:34;;;;;;;7.00;3.33;;;25.10;99.90;;;;;;5063219;28;20083;-64
2022/08/10 12:17:04;;;;;;;8.35;3.28;;;25.10;99.90;;;;;;5068026;28;20069;-64
2022/08/10 12:23:19;;;;;;;8.50;3.97;;;25.20;99.90;;;;;;5046535;28;20154;-64
2022/08/10 12:26:12;;;;;;;8.65;3.40;;;25.10;99.90;;;;;;5049675;28;20044;-64
2022/08/10 12:28:59;;;;;;;7.63;4.05;;;25.20;99.90;;;;;;5039767;28;20065;-64
2022/08/10 12:31:56;;;;;;;5.97;4.00;;;25.10;99.90;;;;;;5068713;28;20066;-64
2022/08/10 12:34:43;;;;;;;8.05;3.50;;;25.10;99.90;;;;;;5069258;28;20052;-64
2022/08/10 12:37:23;;;;;;;9.60;3.78;;;25.00;99.90;;;;;;5026854;28;20441;-64
2022/08/10 12:40:07;;;;;;;7.35;4.50;;;25.40;99.90;;;;;;5053459;28;20045;-64
2022/08/10 12:42:43;;;;;;;9.45;4.13;;;25.10;99.90;;;;;;5051454;28;20128;-64
2022/08/10 12:45:18;;;;;;;7.00;3.70;;;25.20;99.90;;;;;;5070619;28;20458;-65
2022/08/10 12:47:53;;;;;;;5.40;3.40;;;25.30;99.90;;;;;;5072957;28;20059;-65
2022/08/10 12:50:25;;;;;;;8.15;4.10;;;25.30;99.90;;;;;;5037214;28;20122;-65
2022/08/10 12:52:53;;;;;;;7.47;3.75;;;25.70;99.90;;;;;;5035706;28;20055;-65
2022/08/10 12:55:20;;;;;;;7.97;3.50;;;25.40;99.90;;;;;;5072373;28;20040;-64
2022/08/10 12:57:52;;;;;;;7.20;4.00;;;25.40;99.90;;;;;;5037647;28;20055;-65
2022/08/10 13:00:18;;;;;;;8.38;3.40;;;25.40;99.90;;;;;;5052936;28;20510;-65
2022/08/10 13:02:45;;;;;;;8.35;3.72;;;25.50;99.90;;;;;;5033507;28;20041;-65
2022/08/10 13:05:13;;;;;;;6.75;3.95;;;25.40;99.90;;;;;;5034866;28;20775;-65
2022/08/10 13:07:43;;;;;;;6.75;3.88;;;25.30;99.90;;;;;;5034579;28;20033;-65
2022/08/10 13:10:13;;;;;;;5.90;3.45;;;25.40;99.90;;;;;;5051965;28;20070;-65
2022/08/10 13:12:48;;;;;;;10.75;3.75;;;25.60;99.90;;;;;;5018069;28;20049;-65
2022/08/10 13:15:20;;;;;;;9.30;3.17;;;25.50;99.90;;;;;;5031817;28;20115;-65
2022/08/10 13:17:52;;;;;;;10.70;3.30;;;25.70;99.90;;;;;;4996988;28;20577;-65
2022/08/10 13:20:25;;;;;;;5.93;3.05;;;25.60;99.90;;;;;;5033289;28;20390;-65
2022/08/10 13:22:55;;;;;;;8.15;3.88;;;25.60;99.90;;;;;;5034173;28;20053;-65
2022/08/10 13:25:28;;;;;;;8.35;3.25;;;25.70;99.90;;;;;;5034097;28;20052;-65
2022/08/10 13:27:55;;;;;;;5.85;2.97;;;25.70;99.90;;;;;;5034041;28;20045;-65
2022/08/10 13:30:25;;;;;;;8.00;2.58;;;25.70;99.90;;;;;;5051924;28;20055;-65
2022/08/10 13:32:53;;;;;;;6.63;2.80;;;25.80;99.90;;;;;;5033429;28;20053;-65
2022/08/10 13:35:20;;;;;;;7.22;2.95;;;26.00;99.90;;;;;;5072379;28;20380;-65
2022/08/10 13:37:47;;;;;;;4.97;2.83;;;26.00;99.90;;;;;;5070992;28;20075;-65
2022/08/10 13:40:16;;;;;;;5.15;2.50;;;26.10;99.90;;;;;;5054571;28;20044;-65
2022/08/10 13:42:44;;;;;;;6.88;2.78;;;26.00;99.90;;;;;;5054003;28;20048;-65
2022/08/10 13:45:21;;;;;;;6.13;3.00;;;26.00;99.90;;;;;;5056885;28;20044;-65
2022/08/10 13:47:54;;;;;;;8.30;3.17;;;26.00;99.90;;;;;;5034019;28;20045;-65
2022/08/10 13:50:27;;;;;;;6.90;3.80;;;26.10;99.90;;;;;;5063480;28;20041;-65
2022/08/10 13:52:56;;;;;;;4.97;2.47;;;26.10;99.90;;;;;;5048640;28;20045;-65
2022/08/10 13:55:29;;;;;;;4.60;2.47;;;26.00;99.90;;;;;;5053727;28;20032;-65
2022/08/10 13:57:58;;;;;;;6.78;2.63;;;26.00;99.90;;;;;;5071506;28;20044;-65
2022/08/10 14:00:34;;;;;;;5.13;2.20;;;26.20;99.90;;;;;;5070633;28;20115;-65
2022/08/10 14:03:09;;;;;;;6.72;2.83;;;26.20;99.90;;;;;;5071618;28;20063;-65
2022/08/10 14:05:37;;;;;;;9.82;2.75;;;26.10;99.90;;;;;;5052788;28;20394;-65